Pagina principale
METAR-TAF:

METAR-TAF

Aeroporti :

Aqaba, Giordania

latitudine: 29-38N, longitudine: 035-01E, altezza: 53 m

Osservazione

Il bollettino è stato emesso 1 ora e 3 minuti fa, alle 06:00 UTC
Vento calmo
Temperature 21°C
Umidità 33%
Pressione 1016 hPa
Visibilità 10 km o più
nessuna nube inferiore a 1500 m e nessun cumulonembo

METAR: OJAQ 180600Z 00000KT CAVOK 21/04 Q1016 NOSIG

Ora: 09:03 (07:03 UTC)

Previsione

Il bollettino è stato emesso 2 ore e 3 minuti fa, alle 05:00 UTC
Previsione valida dal 18 alle 06 UTC al 19 alle 12 UTC
Vento 10 kt da nord
Visibilità: 7000 m
Probabilità 40% :
Temporaneamente
dal 18 alle 09 UTC al 18 alle 15 UTC
Vento 20 kt da nord
Visibilità: 3000 m
Scaccia polvere alto

TAF: OJAQ 180500Z 1806/1912 36010KT 7000 NSC PROB40 TEMPO 1809/1815 36020KT 3000 BLDU NSC

Osservazioni e previsioni meteorologiche di più di 4000 aeroporti (messaggi METAR e TAF).

Le stazioni disponibili sono rappresentate dai dischi gialli e rossi sulla carta.

Puntare il mouse per vedere il nome della stazione.

Clicca sopra per visualizzare le osservazioni e previsioni meteorologiche.

Per cambiare la mappa : fare clic sui pulsanti verdi con una croce nera per ingrandire, il pulsante verde con un trattino per diminuire, o sulla freccia verde per le mappe adiacenti.


METAR-TAF: